sensor_id;sensor_type;location;lat;lon;timestamp;P1;durP1;ratioP1;P2;durP2;ratioP2
9138;SDS011;4604;48.616;9.548;2024-03-29T00:00:57;1.27;;;0.70;;
9138;SDS011;4604;48.616;9.548;2024-03-29T00:03:23;1.03;;;0.70;;
9138;SDS011;4604;48.616;9.548;2024-03-29T00:05:52;0.57;;;0.50;;
9138;SDS011;4604;48.616;9.548;2024-03-29T00:08:18;1.30;;;0.70;;
9138;SDS011;4604;48.616;9.548;2024-03-29T00:10:46;1.53;;;0.60;;
9138;SDS011;4604;48.616;9.548;2024-03-29T00:13:12;0.97;;;0.53;;
9138;SDS011;4604;48.616;9.548;2024-03-29T00:15:37;0.80;;;0.63;;
9138;SDS011;4604;48.616;9.548;2024-03-29T00:18:03;0.60;;;0.50;;
9138;SDS011;4604;48.616;9.548;2024-03-29T00:20:30;2.40;;;0.67;;
9138;SDS011;4604;48.616;9.548;2024-03-29T00:22:57;0.97;;;0.83;;
9138;SDS011;4604;48.616;9.548;2024-03-29T00:25:22;0.57;;;0.50;;
9138;SDS011;4604;48.616;9.548;2024-03-29T00:27:48;0.93;;;0.80;;
9138;SDS011;4604;48.616;9.548;2024-03-29T00:30:14;0.50;;;0.50;;
9138;SDS011;4604;48.616;9.548;2024-03-29T00:32:39;1.17;;;0.57;;
9138;SDS011;4604;48.616;9.548;2024-03-29T00:35:05;0.70;;;0.70;;
9138;SDS011;4604;48.616;9.548;2024-03-29T00:37:31;0.80;;;0.80;;
9138;SDS011;4604;48.616;9.548;2024-03-29T00:39:58;0.93;;;0.53;;
9138;SDS011;4604;48.616;9.548;2024-03-29T00:42:24;0.43;;;0.43;;
9138;SDS011;4604;48.616;9.548;2024-03-29T00:44:50;0.57;;;0.57;;
9138;SDS011;4604;48.616;9.548;2024-03-29T00:47:15;0.57;;;0.50;;
9138;SDS011;4604;48.616;9.548;2024-03-29T00:49:41;3.97;;;1.07;;
9138;SDS011;4604;48.616;9.548;2024-03-29T00:52:07;0.73;;;0.50;;
9138;SDS011;4604;48.616;9.548;2024-03-29T00:54:32;0.60;;;0.57;;
9138;SDS011;4604;48.616;9.548;2024-03-29T00:56:59;1.47;;;0.50;;
9138;SDS011;4604;48.616;9.548;2024-03-29T00:59:25;2.10;;;0.67;;
9138;SDS011;4604;48.616;9.548;2024-03-29T01:01:51;0.70;;;0.70;;
9138;SDS011;4604;48.616;9.548;2024-03-29T01:04:17;0.60;;;0.60;;
9138;SDS011;4604;48.616;9.548;2024-03-29T01:06:42;0.50;;;0.50;;
9138;SDS011;4604;48.616;9.548;2024-03-29T01:09:08;0.37;;;0.37;;
9138;SDS011;4604;48.616;9.548;2024-03-29T01:11:34;0.43;;;0.43;;
9138;SDS011;4604;48.616;9.548;2024-03-29T01:14:01;0.53;;;0.53;;
9138;SDS011;4604;48.616;9.548;2024-03-29T01:16:27;0.57;;;0.57;;
9138;SDS011;4604;48.616;9.548;2024-03-29T01:18:53;0.60;;;0.50;;
9138;SDS011;4604;48.616;9.548;2024-03-29T01:21:18;1.57;;;0.73;;
9138;SDS011;4604;48.616;9.548;2024-03-29T01:23:44;0.93;;;0.70;;
9138;SDS011;4604;48.616;9.548;2024-03-29T01:26:10;0.73;;;0.60;;
9138;SDS011;4604;48.616;9.548;2024-03-29T01:28:36;0.60;;;0.50;;
9138;SDS011;4604;48.616;9.548;2024-03-29T01:31:04;0.50;;;0.50;;
9138;SDS011;4604;48.616;9.548;2024-03-29T01:33:30;0.97;;;0.73;;
9138;SDS011;4604;48.616;9.548;2024-03-29T01:35:56;0.50;;;0.50;;
9138;SDS011;4604;48.616;9.548;2024-03-29T01:38:21;0.63;;;0.57;;
9138;SDS011;4604;48.616;9.548;2024-03-29T01:40:48;1.73;;;0.70;;
9138;SDS011;4604;48.616;9.548;2024-03-29T01:43:13;1.80;;;0.63;;
9138;SDS011;4604;48.616;9.548;2024-03-29T01:45:40;1.70;;;0.53;;
9138;SDS011;4604;48.616;9.548;2024-03-29T01:48:09;0.40;;;0.40;;
9138;SDS011;4604;48.616;9.548;2024-03-29T01:50:36;0.73;;;0.60;;
9138;SDS011;4604;48.616;9.548;2024-03-29T01:53:04;0.70;;;0.70;;
9138;SDS011;4604;48.616;9.548;2024-03-29T01:55:33;0.57;;;0.53;;
9138;SDS011;4604;48.616;9.548;2024-03-29T01:58:00;3.70;;;0.50;;
9138;SDS011;4604;48.616;9.548;2024-03-29T02:00:27;0.40;;;0.40;;
9138;SDS011;4604;48.616;9.548;2024-03-29T02:02:54;1.80;;;0.60;;
9138;SDS011;4604;48.616;9.548;2024-03-29T02:05:23;0.93;;;0.73;;
9138;SDS011;4604;48.616;9.548;2024-03-29T02:07:51;0.40;;;0.40;;
9138;SDS011;4604;48.616;9.548;2024-03-29T02:10:17;0.50;;;0.50;;
9138;SDS011;4604;48.616;9.548;2024-03-29T02:12:44;0.57;;;0.50;;
9138;SDS011;4604;48.616;9.548;2024-03-29T02:15:14;0.63;;;0.50;;
9138;SDS011;4604;48.616;9.548;2024-03-29T02:17:42;0.30;;;0.30;;
9138;SDS011;4604;48.616;9.548;2024-03-29T02:20:09;0.50;;;0.50;;
9138;SDS011;4604;48.616;9.548;2024-03-29T02:22:39;4.40;;;0.57;;
9138;SDS011;4604;48.616;9.548;2024-03-29T02:25:13;2.07;;;0.60;;
9138;SDS011;4604;48.616;9.548;2024-03-29T02:27:40;0.63;;;0.57;;
9138;SDS011;4604;48.616;9.548;2024-03-29T02:30:07;0.50;;;0.50;;
9138;SDS011;4604;48.616;9.548;2024-03-29T02:32:34;0.60;;;0.40;;
9138;SDS011;4604;48.616;9.548;2024-03-29T02:35:00;0.47;;;0.30;;
9138;SDS011;4604;48.616;9.548;2024-03-29T02:37:27;0.50;;;0.50;;
9138;SDS011;4604;48.616;9.548;2024-03-29T02:39:53;0.40;;;0.40;;
9138;SDS011;4604;48.616;9.548;2024-03-29T02:42:21;0.30;;;0.30;;
9138;SDS011;4604;48.616;9.548;2024-03-29T02:44:48;0.47;;;0.47;;
9138;SDS011;4604;48.616;9.548;2024-03-29T02:47:14;0.60;;;0.50;;
9138;SDS011;4604;48.616;9.548;2024-03-29T02:49:41;0.70;;;0.50;;
9138;SDS011;4604;48.616;9.548;2024-03-29T02:52:07;0.53;;;0.40;;
9138;SDS011;4604;48.616;9.548;2024-03-29T02:54:33;1.73;;;0.50;;
9138;SDS011;4604;48.616;9.548;2024-03-29T02:56:59;0.53;;;0.53;;
9138;SDS011;4604;48.616;9.548;2024-03-29T02:59:27;0.50;;;0.50;;
9138;SDS011;4604;48.616;9.548;2024-03-29T03:01:53;0.73;;;0.50;;
9138;SDS011;4604;48.616;9.548;2024-03-29T03:04:19;0.60;;;0.60;;
9138;SDS011;4604;48.616;9.548;2024-03-29T03:06:45;2.50;;;0.50;;
9138;SDS011;4604;48.616;9.548;2024-03-29T03:09:11;0.37;;;0.30;;
9138;SDS011;4604;48.616;9.548;2024-03-29T03:11:55;0.50;;;0.43;;
9138;SDS011;4604;48.616;9.548;2024-03-29T03:14:22;0.70;;;0.70;;
9138;SDS011;4604;48.616;9.548;2024-03-29T03:16:50;0.97;;;0.60;;
9138;SDS011;4604;48.616;9.548;2024-03-29T03:19:16;0.80;;;0.60;;
9138;SDS011;4604;48.616;9.548;2024-03-29T03:21:42;0.67;;;0.50;;
9138;SDS011;4604;48.616;9.548;2024-03-29T03:24:08;1.70;;;0.50;;
9138;SDS011;4604;48.616;9.548;2024-03-29T03:26:34;0.63;;;0.50;;
9138;SDS011;4604;48.616;9.548;2024-03-29T03:29:01;0.50;;;0.50;;
9138;SDS011;4604;48.616;9.548;2024-03-29T03:31:27;0.97;;;0.33;;
9138;SDS011;4604;48.616;9.548;2024-03-29T03:33:54;0.30;;;0.30;;
9138;SDS011;4604;48.616;9.548;2024-03-29T03:36:21;1.00;;;0.30;;
9138;SDS011;4604;48.616;9.548;2024-03-29T03:38:48;1.33;;;0.80;;
9138;SDS011;4604;48.616;9.548;2024-03-29T03:41:14;0.50;;;0.43;;
9138;SDS011;4604;48.616;9.548;2024-03-29T03:43:40;2.80;;;0.70;;
9138;SDS011;4604;48.616;9.548;2024-03-29T03:46:07;0.50;;;0.50;;
9138;SDS011;4604;48.616;9.548;2024-03-29T03:48:32;0.93;;;0.60;;
9138;SDS011;4604;48.616;9.548;2024-03-29T03:51:00;0.37;;;0.37;;
9138;SDS011;4604;48.616;9.548;2024-03-29T03:53:26;0.50;;;0.50;;
9138;SDS011;4604;48.616;9.548;2024-03-29T03:55:52;0.30;;;0.30;;
9138;SDS011;4604;48.616;9.548;2024-03-29T03:58:18;0.30;;;0.30;;
9138;SDS011;4604;48.616;9.548;2024-03-29T04:00:44;0.30;;;0.30;;
9138;SDS011;4604;48.616;9.548;2024-03-29T04:03:10;2.67;;;0.53;;
9138;SDS011;4604;48.616;9.548;2024-03-29T04:05:37;0.63;;;0.50;;
9138;SDS011;4604;48.616;9.548;2024-03-29T04:08:04;0.30;;;0.30;;
9138;SDS011;4604;48.616;9.548;2024-03-29T04:10:31;0.63;;;0.40;;
9138;SDS011;4604;48.616;9.548;2024-03-29T04:12:57;1.37;;;0.60;;
9138;SDS011;4604;48.616;9.548;2024-03-29T04:15:23;0.37;;;0.37;;
9138;SDS011;4604;48.616;9.548;2024-03-29T04:17:49;0.40;;;0.20;;
9138;SDS011;4604;48.616;9.548;2024-03-29T04:20:15;0.67;;;0.47;;
9138;SDS011;4604;48.616;9.548;2024-03-29T04:22:41;0.30;;;0.30;;
9138;SDS011;4604;48.616;9.548;2024-03-29T04:25:11;0.47;;;0.43;;
9138;SDS011;4604;48.616;9.548;2024-03-29T04:27:37;0.40;;;0.40;;
9138;SDS011;4604;48.616;9.548;2024-03-29T04:30:04;0.30;;;0.30;;
9138;SDS011;4604;48.616;9.548;2024-03-29T04:32:30;0.47;;;0.40;;
9138;SDS011;4604;48.616;9.548;2024-03-29T04:34:57;1.60;;;0.50;;
9138;SDS011;4604;48.616;9.548;2024-03-29T04:37:23;0.60;;;0.40;;
9138;SDS011;4604;48.616;9.548;2024-03-29T04:39:50;0.43;;;0.37;;
9138;SDS011;4604;48.616;9.548;2024-03-29T04:42:18;0.83;;;0.43;;
9138;SDS011;4604;48.616;9.548;2024-03-29T04:44:45;0.70;;;0.40;;
9138;SDS011;4604;48.616;9.548;2024-03-29T04:47:11;0.53;;;0.50;;
9138;SDS011;4604;48.616;9.548;2024-03-29T04:49:38;0.30;;;0.30;;
9138;SDS011;4604;48.616;9.548;2024-03-29T04:52:05;0.43;;;0.40;;
9138;SDS011;4604;48.616;9.548;2024-03-29T04:54:32;0.20;;;0.20;;
9138;SDS011;4604;48.616;9.548;2024-03-29T04:56:59;0.77;;;0.47;;
9138;SDS011;4604;48.616;9.548;2024-03-29T04:59:29;0.67;;;0.40;;
9138;SDS011;4604;48.616;9.548;2024-03-29T05:01:56;1.37;;;0.50;;
9138;SDS011;4604;48.616;9.548;2024-03-29T05:04:24;0.40;;;0.40;;
9138;SDS011;4604;48.616;9.548;2024-03-29T05:06:51;0.53;;;0.53;;
9138;SDS011;4604;48.616;9.548;2024-03-29T05:09:18;0.30;;;0.30;;
9138;SDS011;4604;48.616;9.548;2024-03-29T05:11:45;0.27;;;0.27;;
9138;SDS011;4604;48.616;9.548;2024-03-29T05:14:12;0.40;;;0.40;;
9138;SDS011;4604;48.616;9.548;2024-03-29T05:16:43;2.30;;;0.73;;
9138;SDS011;4604;48.616;9.548;2024-03-29T05:19:10;0.87;;;0.47;;
9138;SDS011;4604;48.616;9.548;2024-03-29T05:21:36;0.97;;;0.50;;
9138;SDS011;4604;48.616;9.548;2024-03-29T05:24:03;1.57;;;0.30;;
9138;SDS011;4604;48.616;9.548;2024-03-29T05:26:30;0.27;;;0.20;;
9138;SDS011;4604;48.616;9.548;2024-03-29T05:28:57;2.37;;;0.83;;
9138;SDS011;4604;48.616;9.548;2024-03-29T05:31:25;0.43;;;0.43;;
9138;SDS011;4604;48.616;9.548;2024-03-29T05:33:53;0.40;;;0.40;;
9138;SDS011;4604;48.616;9.548;2024-03-29T05:36:20;0.80;;;0.70;;
9138;SDS011;4604;48.616;9.548;2024-03-29T05:38:46;0.60;;;0.60;;
9138;SDS011;4604;48.616;9.548;2024-03-29T05:41:13;0.97;;;0.47;;
9138;SDS011;4604;48.616;9.548;2024-03-29T05:43:42;0.33;;;0.33;;
9138;SDS011;4604;48.616;9.548;2024-03-29T05:46:08;0.30;;;0.30;;
9138;SDS011;4604;48.616;9.548;2024-03-29T05:48:35;0.40;;;0.33;;
9138;SDS011;4604;48.616;9.548;2024-03-29T05:51:07;1.33;;;0.70;;
9138;SDS011;4604;48.616;9.548;2024-03-29T05:53:38;1.40;;;0.60;;
9138;SDS011;4604;48.616;9.548;2024-03-29T05:56:05;0.43;;;0.43;;
9138;SDS011;4604;48.616;9.548;2024-03-29T05:58:32;0.43;;;0.43;;
9138;SDS011;4604;48.616;9.548;2024-03-29T06:00:59;1.93;;;0.83;;
9138;SDS011;4604;48.616;9.548;2024-03-29T06:03:26;1.17;;;0.87;;
9138;SDS011;4604;48.616;9.548;2024-03-29T06:05:53;1.17;;;0.90;;
9138;SDS011;4604;48.616;9.548;2024-03-29T06:08:21;0.67;;;0.60;;
9138;SDS011;4604;48.616;9.548;2024-03-29T06:10:49;0.70;;;0.70;;
9138;SDS011;4604;48.616;9.548;2024-03-29T06:13:17;1.77;;;1.37;;
9138;SDS011;4604;48.616;9.548;2024-03-29T06:15:54;1.37;;;1.10;;
9138;SDS011;4604;48.616;9.548;2024-03-29T06:18:39;1.60;;;0.67;;
9138;SDS011;4604;48.616;9.548;2024-03-29T06:21:06;1.27;;;0.83;;
9138;SDS011;4604;48.616;9.548;2024-03-29T06:23:35;0.70;;;0.67;;
9138;SDS011;4604;48.616;9.548;2024-03-29T06:26:01;1.20;;;1.10;;
9138;SDS011;4604;48.616;9.548;2024-03-29T06:28:28;1.73;;;1.43;;
9138;SDS011;4604;48.616;9.548;2024-03-29T06:30:54;0.47;;;0.47;;
9138;SDS011;4604;48.616;9.548;2024-03-29T06:33:21;0.50;;;0.50;;
9138;SDS011;4604;48.616;9.548;2024-03-29T06:35:52;0.40;;;0.40;;
9138;SDS011;4604;48.616;9.548;2024-03-29T06:38:19;0.60;;;0.60;;
9138;SDS011;4604;48.616;9.548;2024-03-29T06:40:47;0.60;;;0.60;;
9138;SDS011;4604;48.616;9.548;2024-03-29T06:43:14;0.73;;;0.60;;
9138;SDS011;4604;48.616;9.548;2024-03-29T06:45:41;1.10;;;0.50;;
9138;SDS011;4604;48.616;9.548;2024-03-29T06:48:08;0.53;;;0.40;;
9138;SDS011;4604;48.616;9.548;2024-03-29T06:50:34;0.53;;;0.50;;
9138;SDS011;4604;48.616;9.548;2024-03-29T06:53:01;0.20;;;0.20;;
9138;SDS011;4604;48.616;9.548;2024-03-29T06:55:27;0.60;;;0.57;;
9138;SDS011;4604;48.616;9.548;2024-03-29T06:57:55;0.80;;;0.50;;
9138;SDS011;4604;48.616;9.548;2024-03-29T07:00:22;1.90;;;0.60;;
9138;SDS011;4604;48.616;9.548;2024-03-29T07:02:49;3.60;;;1.73;;
9138;SDS011;4604;48.616;9.548;2024-03-29T07:05:15;0.80;;;0.50;;
9138;SDS011;4604;48.616;9.548;2024-03-29T07:07:42;0.80;;;0.40;;
9138;SDS011;4604;48.616;9.548;2024-03-29T07:10:11;2.00;;;1.07;;
9138;SDS011;4604;48.616;9.548;2024-03-29T07:12:37;0.30;;;0.30;;
9138;SDS011;4604;48.616;9.548;2024-03-29T07:15:06;3.20;;;1.10;;
9138;SDS011;4604;48.616;9.548;2024-03-29T07:17:33;5.60;;;1.80;;
9138;SDS011;4604;48.616;9.548;2024-03-29T07:19:59;5.20;;;1.70;;
9138;SDS011;4604;48.616;9.548;2024-03-29T07:22:26;5.90;;;2.17;;
9138;SDS011;4604;48.616;9.548;2024-03-29T07:24:53;2.77;;;1.37;;
9138;SDS011;4604;48.616;9.548;2024-03-29T07:27:19;1.03;;;0.83;;
9138;SDS011;4604;48.616;9.548;2024-03-29T07:29:46;1.97;;;1.30;;
9138;SDS011;4604;48.616;9.548;2024-03-29T07:32:14;2.90;;;1.83;;
9138;SDS011;4604;48.616;9.548;2024-03-29T07:34:40;1.50;;;1.30;;
9138;SDS011;4604;48.616;9.548;2024-03-29T07:37:07;1.50;;;1.40;;
9138;SDS011;4604;48.616;9.548;2024-03-29T07:39:37;1.20;;;1.10;;
9138;SDS011;4604;48.616;9.548;2024-03-29T07:42:04;1.57;;;1.00;;
9138;SDS011;4604;48.616;9.548;2024-03-29T07:44:32;1.43;;;0.90;;
9138;SDS011;4604;48.616;9.548;2024-03-29T07:47:02;1.70;;;0.97;;
9138;SDS011;4604;48.616;9.548;2024-03-29T07:49:37;2.20;;;1.57;;
9138;SDS011;4604;48.616;9.548;2024-03-29T07:52:11;0.67;;;0.67;;
9138;SDS011;4604;48.616;9.548;2024-03-29T07:54:47;1.10;;;0.43;;
9138;SDS011;4604;48.616;9.548;2024-03-29T07:57:17;0.70;;;0.70;;
9138;SDS011;4604;48.616;9.548;2024-03-29T07:59:51;0.60;;;0.60;;
9138;SDS011;4604;48.616;9.548;2024-03-29T08:02:24;0.90;;;0.73;;
9138;SDS011;4604;48.616;9.548;2024-03-29T08:04:54;1.00;;;0.63;;
9138;SDS011;4604;48.616;9.548;2024-03-29T08:07:23;0.60;;;0.60;;
9138;SDS011;4604;48.616;9.548;2024-03-29T08:09:50;1.13;;;0.87;;
9138;SDS011;4604;48.616;9.548;2024-03-29T08:12:23;2.47;;;0.70;;
9138;SDS011;4604;48.616;9.548;2024-03-29T08:14:57;0.82;;;0.60;;
9138;SDS011;4604;48.616;9.548;2024-03-29T08:17:32;0.75;;;0.65;;
9138;SDS011;4604;48.616;9.548;2024-03-29T08:20:06;1.63;;;0.98;;
9138;SDS011;4604;48.616;9.548;2024-03-29T08:23:04;1.53;;;1.43;;
9138;SDS011;4604;48.616;9.548;2024-03-29T08:25:31;1.73;;;0.95;;
9138;SDS011;4604;48.616;9.548;2024-03-29T08:28:12;3.38;;;0.75;;
9138;SDS011;4604;48.616;9.548;2024-03-29T08:30:56;2.20;;;1.58;;
9138;SDS011;4604;48.616;9.548;2024-03-29T08:33:45;1.52;;;1.02;;
9138;SDS011;4604;48.616;9.548;2024-03-29T08:36:20;0.90;;;0.88;;
9138;SDS011;4604;48.616;9.548;2024-03-29T08:38:47;2.40;;;0.90;;
9138;SDS011;4604;48.616;9.548;2024-03-29T08:41:21;2.90;;;1.02;;
9138;SDS011;4604;48.616;9.548;2024-03-29T08:43:47;0.85;;;0.70;;
9138;SDS011;4604;48.616;9.548;2024-03-29T08:46:14;1.08;;;0.95;;
9138;SDS011;4604;48.616;9.548;2024-03-29T08:48:40;0.90;;;0.90;;
9138;SDS011;4604;48.616;9.548;2024-03-29T08:51:08;1.42;;;1.33;;
9138;SDS011;4604;48.616;9.548;2024-03-29T08:53:36;1.90;;;1.17;;
9138;SDS011;4604;48.616;9.548;2024-03-29T08:56:03;2.38;;;1.25;;
9138;SDS011;4604;48.616;9.548;2024-03-29T08:58:30;1.17;;;0.75;;
9138;SDS011;4604;48.616;9.548;2024-03-29T09:00:56;0.80;;;0.80;;
9138;SDS011;4604;48.616;9.548;2024-03-29T09:03:23;0.85;;;0.85;;
9138;SDS011;4604;48.616;9.548;2024-03-29T09:05:50;2.28;;;0.73;;
9138;SDS011;4604;48.616;9.548;2024-03-29T09:08:17;1.92;;;1.30;;
9138;SDS011;4604;48.616;9.548;2024-03-29T09:10:45;1.38;;;1.27;;
9138;SDS011;4604;48.616;9.548;2024-03-29T09:13:12;1.85;;;1.40;;
9138;SDS011;4604;48.616;9.548;2024-03-29T09:15:39;1.90;;;1.50;;
9138;SDS011;4604;48.616;9.548;2024-03-29T09:18:05;2.42;;;1.70;;
9138;SDS011;4604;48.616;9.548;2024-03-29T09:20:42;2.60;;;1.50;;
9138;SDS011;4604;48.616;9.548;2024-03-29T09:23:09;2.30;;;1.65;;
9138;SDS011;4604;48.616;9.548;2024-03-29T09:25:39;5.23;;;1.97;;
9138;SDS011;4604;48.616;9.548;2024-03-29T09:28:07;2.20;;;1.97;;
9138;SDS011;4604;48.616;9.548;2024-03-29T09:30:35;2.07;;;1.60;;
9138;SDS011;4604;48.616;9.548;2024-03-29T09:33:01;1.95;;;1.60;;
9138;SDS011;4604;48.616;9.548;2024-03-29T09:35:31;1.70;;;1.50;;
9138;SDS011;4604;48.616;9.548;2024-03-29T09:37:58;1.50;;;1.37;;
9138;SDS011;4604;48.616;9.548;2024-03-29T09:40:25;1.67;;;1.30;;
9138;SDS011;4604;48.616;9.548;2024-03-29T09:42:53;1.48;;;1.30;;
9138;SDS011;4604;48.616;9.548;2024-03-29T09:45:28;2.28;;;1.40;;
9138;SDS011;4604;48.616;9.548;2024-03-29T09:47:59;2.05;;;1.63;;
9138;SDS011;4604;48.616;9.548;2024-03-29T09:50:28;2.50;;;1.70;;
9138;SDS011;4604;48.616;9.548;2024-03-29T09:52:55;1.40;;;1.30;;
9138;SDS011;4604;48.616;9.548;2024-03-29T09:55:22;1.23;;;1.10;;
9138;SDS011;4604;48.616;9.548;2024-03-29T09:57:48;1.58;;;1.10;;
9138;SDS011;4604;48.616;9.548;2024-03-29T10:00:16;1.03;;;0.90;;
9138;SDS011;4604;48.616;9.548;2024-03-29T10:02:45;1.23;;;1.03;;
9138;SDS011;4604;48.616;9.548;2024-03-29T10:05:12;1.50;;;1.10;;
9138;SDS011;4604;48.616;9.548;2024-03-29T10:07:40;1.27;;;0.90;;
9138;SDS011;4604;48.616;9.548;2024-03-29T10:10:09;2.10;;;1.08;;
9138;SDS011;4604;48.616;9.548;2024-03-29T10:12:36;2.45;;;1.20;;
9138;SDS011;4604;48.616;9.548;2024-03-29T10:15:03;0.98;;;0.88;;
9138;SDS011;4604;48.616;9.548;2024-03-29T10:17:34;0.80;;;0.80;;
9138;SDS011;4604;48.616;9.548;2024-03-29T10:20:05;1.05;;;0.90;;
9138;SDS011;4604;48.616;9.548;2024-03-29T10:22:35;4.10;;;0.90;;
9138;SDS011;4604;48.616;9.548;2024-03-29T10:25:02;1.88;;;0.95;;
9138;SDS011;4604;48.616;9.548;2024-03-29T10:27:29;0.90;;;0.80;;
9138;SDS011;4604;48.616;9.548;2024-03-29T10:29:56;1.90;;;0.90;;
9138;SDS011;4604;48.616;9.548;2024-03-29T10:32:23;0.77;;;0.70;;
9138;SDS011;4604;48.616;9.548;2024-03-29T10:34:49;2.15;;;1.02;;
9138;SDS011;4604;48.616;9.548;2024-03-29T10:37:17;2.42;;;1.02;;
9138;SDS011;4604;48.616;9.548;2024-03-29T10:39:50;3.50;;;1.00;;
9138;SDS011;4604;48.616;9.548;2024-03-29T10:42:16;2.10;;;0.82;;
9138;SDS011;4604;48.616;9.548;2024-03-29T10:44:45;0.88;;;0.80;;
9138;SDS011;4604;48.616;9.548;2024-03-29T10:47:15;1.70;;;0.95;;
9138;SDS011;4604;48.616;9.548;2024-03-29T10:49:45;1.13;;;0.75;;
9138;SDS011;4604;48.616;9.548;2024-03-29T10:52:18;1.05;;;0.63;;
9138;SDS011;4604;48.616;9.548;2024-03-29T10:54:45;1.80;;;0.70;;
9138;SDS011;4604;48.616;9.548;2024-03-29T10:57:12;0.65;;;0.60;;
9138;SDS011;4604;48.616;9.548;2024-03-29T10:59:48;0.82;;;0.68;;
9138;SDS011;4604;48.616;9.548;2024-03-29T11:02:22;0.80;;;0.80;;
9138;SDS011;4604;48.616;9.548;2024-03-29T11:04:57;1.60;;;0.95;;
9138;SDS011;4604;48.616;9.548;2024-03-29T11:07:32;1.70;;;0.95;;
9138;SDS011;4604;48.616;9.548;2024-03-29T11:10:02;1.63;;;0.82;;
9138;SDS011;4604;48.616;9.548;2024-03-29T11:12:30;1.23;;;1.00;;
9138;SDS011;4604;48.616;9.548;2024-03-29T11:15:07;1.73;;;0.98;;
9138;SDS011;4604;48.616;9.548;2024-03-29T11:17:42;1.92;;;1.33;;
9138;SDS011;4604;48.616;9.548;2024-03-29T11:20:09;0.80;;;0.80;;
9138;SDS011;4604;48.616;9.548;2024-03-29T11:22:38;1.25;;;0.70;;
9138;SDS011;4604;48.616;9.548;2024-03-29T11:25:05;2.20;;;1.13;;
9138;SDS011;4604;48.616;9.548;2024-03-29T11:27:33;4.35;;;2.38;;
9138;SDS011;4604;48.616;9.548;2024-03-29T11:30:01;1.40;;;1.30;;
9138;SDS011;4604;48.616;9.548;2024-03-29T11:32:34;1.55;;;1.05;;
9138;SDS011;4604;48.616;9.548;2024-03-29T11:35:03;3.42;;;1.40;;
9138;SDS011;4604;48.616;9.548;2024-03-29T11:37:31;1.95;;;1.30;;
9138;SDS011;4604;48.616;9.548;2024-03-29T11:39:59;1.65;;;1.40;;
9138;SDS011;4604;48.616;9.548;2024-03-29T11:42:36;1.30;;;1.17;;
9138;SDS011;4604;48.616;9.548;2024-03-29T11:45:04;4.03;;;1.27;;
9138;SDS011;4604;48.616;9.548;2024-03-29T11:47:32;5.57;;;1.98;;
9138;SDS011;4604;48.616;9.548;2024-03-29T11:49:59;1.90;;;1.50;;
9138;SDS011;4604;48.616;9.548;2024-03-29T11:52:26;1.38;;;1.27;;
9138;SDS011;4604;48.616;9.548;2024-03-29T11:54:53;2.63;;;1.75;;
9138;SDS011;4604;48.616;9.548;2024-03-29T11:57:23;3.63;;;1.60;;
9138;SDS011;4604;48.616;9.548;2024-03-29T11:59:49;3.35;;;2.20;;
9138;SDS011;4604;48.616;9.548;2024-03-29T12:02:16;4.05;;;2.17;;
9138;SDS011;4604;48.616;9.548;2024-03-29T12:04:43;2.45;;;1.88;;
9138;SDS011;4604;48.616;9.548;2024-03-29T12:07:10;4.88;;;1.90;;
9138;SDS011;4604;48.616;9.548;2024-03-29T12:09:37;3.60;;;1.30;;
9138;SDS011;4604;48.616;9.548;2024-03-29T12:12:05;3.03;;;1.92;;
9138;SDS011;4604;48.616;9.548;2024-03-29T12:14:36;1.70;;;1.33;;
9138;SDS011;4604;48.616;9.548;2024-03-29T12:17:08;2.00;;;1.40;;
9138;SDS011;4604;48.616;9.548;2024-03-29T12:19:35;2.03;;;1.23;;
9138;SDS011;4604;48.616;9.548;2024-03-29T12:22:04;1.33;;;1.23;;
9138;SDS011;4604;48.616;9.548;2024-03-29T12:24:30;2.10;;;1.90;;
9138;SDS011;4604;48.616;9.548;2024-03-29T12:26:57;1.50;;;1.27;;
9138;SDS011;4604;48.616;9.548;2024-03-29T12:29:24;1.45;;;1.23;;
9138;SDS011;4604;48.616;9.548;2024-03-29T12:31:58;2.97;;;1.40;;
9138;SDS011;4604;48.616;9.548;2024-03-29T12:34:25;2.00;;;1.60;;
9138;SDS011;4604;48.616;9.548;2024-03-29T12:36:51;1.08;;;0.98;;
9138;SDS011;4604;48.616;9.548;2024-03-29T12:39:18;1.13;;;1.02;;
9138;SDS011;4604;48.616;9.548;2024-03-29T12:41:46;1.52;;;1.10;;
9138;SDS011;4604;48.616;9.548;2024-03-29T12:44:13;1.58;;;1.40;;
9138;SDS011;4604;48.616;9.548;2024-03-29T12:46:39;1.60;;;1.30;;
9138;SDS011;4604;48.616;9.548;2024-03-29T12:49:09;2.45;;;1.20;;
9138;SDS011;4604;48.616;9.548;2024-03-29T12:51:37;1.10;;;1.00;;
9138;SDS011;4604;48.616;9.548;2024-03-29T12:54:05;1.35;;;1.25;;
9138;SDS011;4604;48.616;9.548;2024-03-29T12:56:32;2.65;;;1.20;;
9138;SDS011;4604;48.616;9.548;2024-03-29T12:59:01;1.17;;;1.00;;
9138;SDS011;4604;48.616;9.548;2024-03-29T13:01:27;1.77;;;1.48;;
9138;SDS011;4604;48.616;9.548;2024-03-29T13:03:54;1.45;;;1.10;;
9138;SDS011;4604;48.616;9.548;2024-03-29T13:06:22;2.47;;;1.38;;
9138;SDS011;4604;48.616;9.548;2024-03-29T13:08:49;2.20;;;1.70;;
9138;SDS011;4604;48.616;9.548;2024-03-29T13:11:16;2.10;;;1.50;;
9138;SDS011;4604;48.616;9.548;2024-03-29T13:13:42;2.15;;;1.35;;
9138;SDS011;4604;48.616;9.548;2024-03-29T13:16:09;1.52;;;1.40;;
9138;SDS011;4604;48.616;9.548;2024-03-29T13:18:36;1.88;;;1.58;;
9138;SDS011;4604;48.616;9.548;2024-03-29T13:21:03;1.90;;;1.65;;
9138;SDS011;4604;48.616;9.548;2024-03-29T13:23:31;3.25;;;1.60;;
9138;SDS011;4604;48.616;9.548;2024-03-29T13:25:58;1.48;;;1.35;;
9138;SDS011;4604;48.616;9.548;2024-03-29T13:28:25;1.65;;;1.42;;
9138;SDS011;4604;48.616;9.548;2024-03-29T13:30:51;1.60;;;1.40;;
9138;SDS011;4604;48.616;9.548;2024-03-29T13:33:18;1.42;;;1.30;;
9138;SDS011;4604;48.616;9.548;2024-03-29T13:35:45;1.52;;;1.40;;
9138;SDS011;4604;48.616;9.548;2024-03-29T13:38:12;1.77;;;1.58;;
9138;SDS011;4604;48.616;9.548;2024-03-29T13:40:39;2.97;;;1.60;;
9138;SDS011;4604;48.616;9.548;2024-03-29T13:43:10;1.65;;;1.48;;
9138;SDS011;4604;48.616;9.548;2024-03-29T13:45:36;1.70;;;1.52;;
9138;SDS011;4604;48.616;9.548;2024-03-29T13:48:03;2.75;;;1.40;;
9138;SDS011;4604;48.616;9.548;2024-03-29T13:50:30;1.90;;;1.50;;
9138;SDS011;4604;48.616;9.548;2024-03-29T13:52:57;1.92;;;1.58;;
9138;SDS011;4604;48.616;9.548;2024-03-29T13:55:24;3.38;;;1.42;;
9138;SDS011;4604;48.616;9.548;2024-03-29T13:57:53;1.40;;;1.20;;
9138;SDS011;4604;48.616;9.548;2024-03-29T14:00:20;2.40;;;1.80;;
9138;SDS011;4604;48.616;9.548;2024-03-29T14:02:47;2.95;;;1.30;;
9138;SDS011;4604;48.616;9.548;2024-03-29T14:05:14;1.45;;;1.35;;
9138;SDS011;4604;48.616;9.548;2024-03-29T14:07:40;1.70;;;1.25;;
9138;SDS011;4604;48.616;9.548;2024-03-29T14:10:07;1.45;;;1.35;;
9138;SDS011;4604;48.616;9.548;2024-03-29T14:12:34;1.98;;;1.70;;
9138;SDS011;4604;48.616;9.548;2024-03-29T14:15:02;2.10;;;1.50;;
9138;SDS011;4604;48.616;9.548;2024-03-29T14:17:30;1.98;;;1.40;;
9138;SDS011;4604;48.616;9.548;2024-03-29T14:19:57;1.70;;;1.52;;
9138;SDS011;4604;48.616;9.548;2024-03-29T14:22:24;2.15;;;1.45;;
9138;SDS011;4604;48.616;9.548;2024-03-29T14:24:51;1.83;;;1.17;;
9138;SDS011;4604;48.616;9.548;2024-03-29T14:27:18;1.52;;;1.30;;
9138;SDS011;4604;48.616;9.548;2024-03-29T14:29:44;2.47;;;1.45;;
9138;SDS011;4604;48.616;9.548;2024-03-29T14:32:12;1.30;;;1.20;;
9138;SDS011;4604;48.616;9.548;2024-03-29T14:34:39;4.35;;;1.40;;
9138;SDS011;4604;48.616;9.548;2024-03-29T14:37:11;2.42;;;1.30;;
9138;SDS011;4604;48.616;9.548;2024-03-29T14:39:40;3.72;;;1.40;;
9138;SDS011;4604;48.616;9.548;2024-03-29T14:42:08;1.67;;;1.33;;
9138;SDS011;4604;48.616;9.548;2024-03-29T14:44:38;4.95;;;1.50;;
9138;SDS011;4604;48.616;9.548;2024-03-29T14:47:05;1.27;;;1.17;;
9138;SDS011;4604;48.616;9.548;2024-03-29T14:49:33;0.82;;;0.82;;
9138;SDS011;4604;48.616;9.548;2024-03-29T14:52:00;1.60;;;1.30;;
9138;SDS011;4604;48.616;9.548;2024-03-29T14:54:26;1.30;;;1.20;;
9138;SDS011;4604;48.616;9.548;2024-03-29T14:56:54;1.77;;;1.40;;
9138;SDS011;4604;48.616;9.548;2024-03-29T14:59:20;1.10;;;1.00;;
9138;SDS011;4604;48.616;9.548;2024-03-29T15:01:46;1.30;;;1.20;;
9138;SDS011;4604;48.616;9.548;2024-03-29T15:04:13;3.58;;;1.10;;
9138;SDS011;4604;48.616;9.548;2024-03-29T15:06:41;2.13;;;1.20;;
9138;SDS011;4604;48.616;9.548;2024-03-29T15:09:07;2.33;;;1.30;;
9138;SDS011;4604;48.616;9.548;2024-03-29T15:11:34;1.25;;;1.15;;
9138;SDS011;4604;48.616;9.548;2024-03-29T15:14:01;1.30;;;0.90;;
9138;SDS011;4604;48.616;9.548;2024-03-29T15:16:29;1.73;;;1.50;;
9138;SDS011;4604;48.616;9.548;2024-03-29T15:18:56;2.67;;;1.50;;